< < Back
Terminal Aerodrome Forecast


Current Version              Previous Versions:   1  2  3  4  5  6  7  8  9  

Terminal Aerodrome Forecast

314
FTUS42 KCHS 272334
TAFSAV
TAF
KSAV 272334Z 2800/2824 17007KT P6SM SCT060
     FM280400 22004KT P6SM SKC
     FM281100 26008KT P6SM SKC
     FM282100 21009KT P6SM FEW050=

Latest METAR

546
SAUS80 KWBC 282000 RRA
MTRSAV
METAR KSAV 281953Z 23011G15KT 10SM SCT065 37/19 A2997 RMK AO2 SLP146
T03720189


USA.gov is the U.S. government's official web portal to all federal, state and local government web resources and services.